createdAt,value
2022-10-16T00:00:59.935Z,1.60
2022-10-16T00:03:30.291Z,2.50
2022-10-16T00:06:01.904Z,1.37
2022-10-16T00:08:29.854Z,2.50
2022-10-16T00:11:03.858Z,5.53
2022-10-16T00:13:32.187Z,4.60
2022-10-16T00:16:01.140Z,3.15
2022-10-16T00:18:29.288Z,8.43
2022-10-16T00:20:57.566Z,7.97
2022-10-16T00:23:25.266Z,5.00
2022-10-16T00:26:00.115Z,5.47
2022-10-16T00:28:29.600Z,5.38
2022-10-16T00:30:58.182Z,3.00
2022-10-16T00:33:27.300Z,2.75
2022-10-16T00:35:54.982Z,2.22
2022-10-16T00:38:22.668Z,2.90
2022-10-16T00:40:50.367Z,2.15
2022-10-16T00:43:38.874Z,4.00
2022-10-16T00:46:12.841Z,1.65
2022-10-16T00:48:40.835Z,1.95
2022-10-16T00:51:09.552Z,2.80
2022-10-16T00:53:37.628Z,4.47
2022-10-16T00:56:06.136Z,3.40
2022-10-16T00:58:34.117Z,4.13
2022-10-16T01:01:03.250Z,2.67
2022-10-16T01:03:33.389Z,4.47
2022-10-16T01:06:11.294Z,1.75
2022-10-16T01:08:50.590Z,3.10
2022-10-16T01:11:26.625Z,3.43
2022-10-16T01:13:57.809Z,4.68
2022-10-16T01:16:33.900Z,2.33
2022-10-16T01:19:11.456Z,2.05
2022-10-16T01:21:44.541Z,2.50
2022-10-16T01:24:29.123Z,2.33
2022-10-16T01:27:08.611Z,1.80
2022-10-16T01:29:41.484Z,2.25
2022-10-16T01:32:18.243Z,4.00
2022-10-16T01:34:51.472Z,3.10
2022-10-16T01:37:25.195Z,2.93
2022-10-16T01:39:58.083Z,2.53
2022-10-16T01:42:33.268Z,3.33
2022-10-16T01:45:02.485Z,2.22
2022-10-16T01:47:33.641Z,3.15
2022-10-16T01:50:03.241Z,2.75
2022-10-16T01:52:31.832Z,1.63
2022-10-16T01:55:02.479Z,4.78
2022-10-16T01:57:38.039Z,1.95
2022-10-16T02:00:12.432Z,1.50
2022-10-16T02:02:42.214Z,1.30
2022-10-16T02:05:16.934Z,1.27
2022-10-16T02:07:44.912Z,3.10
2022-10-16T02:10:13.019Z,2.20
2022-10-16T02:12:46.511Z,1.85
2022-10-16T02:15:14.175Z,1.90
2022-10-16T02:17:41.847Z,1.40
2022-10-16T02:20:10.450Z,1.52
2022-10-16T02:22:43.068Z,2.00
2022-10-16T02:25:15.327Z,2.88
2022-10-16T02:27:51.190Z,1.53
2022-10-16T02:30:28.146Z,2.60
2022-10-16T02:32:56.598Z,1.35
2022-10-16T02:35:26.204Z,3.60
2022-10-16T02:37:55.030Z,1.50
2022-10-16T02:40:25.327Z,1.48
2022-10-16T02:42:55.680Z,1.55
2022-10-16T02:45:26.300Z,2.15
2022-10-16T02:47:54.233Z,3.15
2022-10-16T02:50:22.342Z,1.20
2022-10-16T02:52:50.262Z,2.03
2022-10-16T02:55:17.988Z,3.60
2022-10-16T02:57:45.795Z,2.20
2022-10-16T03:00:17.542Z,2.83
2022-10-16T03:02:45.795Z,1.30
2022-10-16T03:05:16.592Z,1.92
2022-10-16T03:07:44.319Z,1.50
2022-10-16T03:10:12.040Z,1.60
2022-10-16T03:12:39.737Z,1.67
2022-10-16T03:15:08.305Z,2.92
2022-10-16T03:17:37.626Z,1.50
2022-10-16T03:20:06.122Z,1.50
2022-10-16T03:22:34.203Z,1.30
2022-10-16T03:25:01.932Z,1.30
2022-10-16T03:27:29.914Z,3.50
2022-10-16T03:29:58.018Z,2.88
2022-10-16T03:32:26.331Z,1.40
2022-10-16T03:34:57.306Z,1.63
2022-10-16T03:37:25.847Z,1.20
2022-10-16T03:39:54.051Z,2.20
2022-10-16T03:42:21.738Z,1.58
2022-10-16T03:44:49.407Z,1.37
2022-10-16T03:47:21.507Z,2.65
2022-10-16T03:49:49.315Z,1.30
2022-10-16T03:54:51.408Z,1.90
2022-10-16T03:57:19.434Z,2.63
2022-10-16T03:59:47.110Z,2.45
2022-10-16T04:02:14.852Z,1.33
2022-10-16T04:04:42.580Z,3.30
2022-10-16T04:07:12.694Z,1.73
2022-10-16T04:09:43.907Z,1.20
2022-10-16T04:12:11.585Z,2.60
2022-10-16T04:14:39.260Z,1.80
2022-10-16T04:17:07.028Z,2.10
2022-10-16T04:19:34.724Z,2.60
2022-10-16T04:22:02.459Z,1.63
2022-10-16T04:24:30.267Z,1.70
2022-10-16T04:27:01.541Z,2.10
2022-10-16T04:29:29.379Z,2.17
2022-10-16T04:31:57.135Z,1.50
2022-10-16T04:34:24.997Z,2.30
2022-10-16T04:36:52.701Z,4.15
2022-10-16T04:39:20.537Z,1.90
2022-10-16T04:41:48.295Z,3.33
2022-10-16T04:44:19.442Z,1.73
2022-10-16T04:46:47.172Z,2.97
2022-10-16T04:49:14.874Z,1.63
2022-10-16T04:51:42.580Z,1.95
2022-10-16T04:54:10.834Z,3.55
2022-10-16T04:56:44.216Z,1.90
2022-10-16T04:59:11.934Z,1.83
2022-10-16T05:01:40.984Z,1.40
2022-10-16T05:04:08.773Z,3.10
2022-10-16T05:06:36.569Z,3.47
2022-10-16T05:09:04.752Z,2.50
2022-10-16T05:11:34.796Z,1.42
2022-10-16T05:14:02.960Z,1.23
2022-10-16T05:16:31.204Z,1.88
2022-10-16T05:21:47.979Z,3.05
2022-10-16T05:24:16.068Z,1.83
2022-10-16T05:26:43.955Z,3.33
2022-10-16T05:29:11.649Z,2.00
2022-10-16T05:31:41.758Z,5.05
2022-10-16T05:34:10.933Z,3.67
2022-10-16T05:36:38.826Z,2.17
2022-10-16T05:39:06.503Z,1.50
2022-10-16T05:41:34.283Z,3.63
2022-10-16T05:44:06.296Z,1.95
2022-10-16T05:46:34.721Z,3.72
2022-10-16T05:49:02.394Z,2.20
2022-10-16T05:51:31.493Z,1.60
2022-10-16T05:53:59.145Z,3.17
2022-10-16T05:56:26.824Z,2.88
2022-10-16T05:58:56.635Z,1.13
2022-10-16T06:01:25.184Z,2.97
2022-10-16T06:03:53.864Z,1.20
2022-10-16T06:06:23.704Z,1.85
2022-10-16T06:08:56.531Z,2.08
2022-10-16T06:11:29.048Z,2.00
2022-10-16T06:13:59.084Z,1.83
2022-10-16T06:16:27.775Z,1.73
2022-10-16T06:18:56.716Z,2.90
2022-10-16T06:21:26.696Z,2.65
2022-10-16T06:23:56.705Z,1.33
2022-10-16T06:26:27.120Z,1.50
2022-10-16T06:28:57.277Z,2.28
2022-10-16T06:31:28.402Z,2.28
2022-10-16T06:33:57.142Z,4.32
2022-10-16T06:36:25.636Z,2.10
2022-10-16T06:38:55.198Z,2.60
2022-10-16T06:41:24.361Z,3.53
2022-10-16T06:43:53.077Z,4.53
2022-10-16T06:46:23.052Z,2.65
2022-10-16T06:48:51.208Z,2.22
2022-10-16T06:51:20.437Z,3.10
2022-10-16T06:54:05.671Z,1.73
2022-10-16T06:56:35.517Z,3.00
2022-10-16T06:59:04.689Z,1.67
2022-10-16T07:01:32.623Z,1.95
2022-10-16T07:04:00.468Z,4.43
2022-10-16T07:06:29.029Z,1.60
2022-10-16T07:08:57.090Z,2.20
2022-10-16T07:11:25.987Z,2.17
2022-10-16T07:13:57.434Z,2.30
2022-10-16T07:16:27.943Z,2.50
2022-10-16T07:18:59.628Z,5.68
2022-10-16T07:21:29.715Z,5.03
2022-10-16T07:23:59.650Z,1.58
2022-10-16T07:26:29.149Z,3.00
2022-10-16T07:28:58.902Z,4.63
2022-10-16T07:31:27.202Z,2.97
2022-10-16T07:33:55.351Z,1.58
2022-10-16T07:36:25.373Z,3.90
2022-10-16T07:38:58.709Z,2.67
2022-10-16T07:41:28.728Z,2.33
2022-10-16T07:44:01.883Z,3.20
2022-10-16T07:46:30.200Z,3.40
2022-10-16T07:48:58.055Z,5.95
2022-10-16T07:51:27.610Z,2.87
2022-10-16T07:53:56.070Z,4.40
2022-10-16T07:56:23.954Z,2.20
2022-10-16T07:58:52.423Z,3.08
2022-10-16T08:01:21.812Z,3.13
2022-10-16T08:03:51.830Z,3.53
2022-10-16T08:06:23.422Z,4.32
2022-10-16T08:08:54.706Z,3.92
2022-10-16T08:11:22.584Z,2.05
2022-10-16T08:13:50.318Z,4.30
2022-10-16T08:16:18.247Z,4.45
2022-10-16T08:18:48.441Z,4.35
2022-10-16T08:21:20.375Z,4.38
2022-10-16T08:23:54.489Z,2.30
2022-10-16T08:26:27.391Z,3.38
2022-10-16T08:28:55.886Z,5.15
2022-10-16T08:31:23.910Z,3.10
2022-10-16T08:33:53.480Z,2.90
2022-10-16T08:36:21.707Z,3.20
2022-10-16T08:38:51.422Z,3.20
2022-10-16T08:41:56.920Z,3.60
2022-10-16T08:44:47.806Z,4.53
2022-10-16T08:47:19.945Z,2.88
2022-10-16T08:49:59.128Z,3.90
2022-10-16T08:52:32.784Z,4.93
2022-10-16T08:55:01.581Z,2.70
2022-10-16T08:57:30.067Z,1.77
2022-10-16T09:00:02.565Z,2.53
2022-10-16T09:02:34.497Z,4.43
2022-10-16T09:05:21.725Z,2.10
2022-10-16T09:08:05.545Z,2.40
2022-10-16T09:10:45.504Z,3.78
2022-10-16T09:13:23.001Z,3.90
2022-10-16T09:15:57.822Z,3.10
2022-10-16T09:18:32.944Z,2.73
2022-10-16T09:21:09.475Z,2.50
2022-10-16T09:23:39.168Z,1.92
2022-10-16T09:26:11.812Z,2.38
2022-10-16T09:28:39.750Z,3.92
2022-10-16T09:31:07.756Z,5.05
2022-10-16T09:33:38.458Z,4.47
2022-10-16T09:36:13.529Z,3.85
2022-10-16T09:38:41.207Z,3.40
2022-10-16T09:41:17.432Z,1.63
2022-10-16T09:43:51.659Z,2.05
2022-10-16T09:46:27.310Z,1.50
2022-10-16T09:48:58.203Z,1.40
2022-10-16T09:51:31.689Z,1.33
2022-10-16T09:54:02.297Z,2.00
2022-10-16T09:56:33.417Z,1.10
2022-10-16T09:59:03.229Z,3.70
2022-10-16T10:01:37.562Z,3.08
2022-10-16T10:04:06.370Z,2.97
2022-10-16T10:06:39.205Z,2.55
2022-10-16T10:09:17.364Z,1.67
2022-10-16T10:11:51.618Z,1.95
2022-10-16T10:14:25.664Z,2.15
2022-10-16T10:16:55.362Z,2.17
2022-10-16T10:19:28.004Z,2.58
2022-10-16T10:22:00.121Z,2.90
2022-10-16T10:24:27.854Z,3.20
2022-10-16T10:27:02.855Z,4.47
2022-10-16T10:29:49.511Z,1.27
2022-10-16T10:32:29.755Z,3.45
2022-10-16T10:35:13.238Z,1.88
2022-10-16T10:38:04.252Z,4.13
2022-10-16T10:40:41.763Z,1.30
2022-10-16T10:43:23.238Z,1.38
2022-10-16T10:45:56.238Z,2.13
2022-10-16T10:48:43.113Z,1.20
2022-10-16T10:51:18.876Z,3.13
2022-10-16T10:53:57.913Z,2.45
2022-10-16T10:56:44.303Z,1.42
2022-10-16T10:59:31.612Z,2.28
2022-10-16T11:02:06.719Z,3.97
2022-10-16T11:05:00.076Z,1.30
2022-10-16T11:07:32.070Z,3.30
2022-10-16T11:10:05.872Z,2.58
2022-10-16T11:12:39.039Z,2.70
2022-10-16T11:15:15.500Z,2.78
2022-10-16T11:17:46.918Z,2.95
2022-10-16T11:20:20.004Z,1.25
2022-10-16T11:22:53.680Z,2.63
2022-10-16T11:25:27.868Z,4.97
2022-10-16T11:28:02.319Z,2.17
2022-10-16T11:30:31.723Z,1.58
2022-10-16T11:33:11.349Z,1.35
2022-10-16T11:35:49.909Z,3.50
2022-10-16T11:38:28.124Z,0.95
2022-10-16T11:41:02.894Z,2.85
2022-10-16T11:43:36.721Z,1.35
2022-10-16T11:46:11.184Z,1.13
2022-10-16T11:48:44.976Z,2.53
2022-10-16T11:51:21.806Z,1.20
2022-10-16T11:53:55.619Z,2.00
2022-10-16T11:56:24.950Z,1.70
2022-10-16T11:58:58.616Z,3.03
2022-10-16T12:01:33.972Z,3.30
2022-10-16T12:04:16.667Z,1.38
2022-10-16T12:06:49.552Z,0.95
2022-10-16T12:09:26.962Z,2.08
2022-10-16T12:11:56.150Z,1.83
2022-10-16T12:14:51.690Z,4.70
2022-10-16T12:17:27.805Z,1.80
2022-10-16T12:20:15.267Z,1.58
2022-10-16T12:22:49.686Z,1.70
2022-10-16T12:25:23.736Z,2.03
2022-10-16T12:27:59.246Z,2.78
2022-10-16T12:30:32.288Z,1.55
2022-10-16T12:33:05.734Z,1.92
2022-10-16T12:35:45.911Z,3.38
2022-10-16T12:38:21.969Z,1.20
2022-10-16T12:40:59.921Z,0.98
2022-10-16T12:43:38.073Z,1.13
2022-10-16T12:46:23.038Z,0.98
2022-10-16T12:49:06.106Z,1.40
2022-10-16T12:51:37.266Z,1.52
2022-10-16T12:54:07.236Z,2.97
2022-10-16T12:56:46.543Z,8.70
2022-10-16T12:59:27.465Z,2.33
2022-10-16T13:02:13.655Z,2.65
2022-10-16T13:05:16.825Z,3.13
2022-10-16T13:07:58.531Z,5.25
2022-10-16T13:10:35.057Z,3.13
2022-10-16T13:13:25.991Z,2.78
2022-10-16T13:16:05.333Z,2.85
2022-10-16T13:18:46.664Z,2.00
2022-10-16T13:21:34.012Z,1.15
2022-10-16T13:24:14.921Z,1.95
2022-10-16T13:26:51.857Z,3.17
2022-10-16T13:29:21.719Z,2.03
2022-10-16T13:31:51.380Z,2.60
2022-10-16T13:34:22.665Z,3.20
2022-10-16T13:36:54.112Z,1.88
2022-10-16T13:39:25.085Z,1.60
2022-10-16T13:42:09.132Z,1.20
2022-10-16T13:44:43.424Z,2.22
2022-10-16T13:47:19.771Z,1.40
2022-10-16T13:49:48.208Z,1.63
2022-10-16T13:52:20.859Z,1.95
2022-10-16T13:54:49.130Z,3.60
2022-10-16T13:57:26.762Z,1.52
2022-10-16T13:59:55.875Z,4.70
2022-10-16T14:02:31.830Z,1.13
2022-10-16T14:05:00.545Z,1.95
2022-10-16T14:07:31.112Z,4.07
2022-10-16T14:10:04.200Z,2.85
2022-10-16T14:12:32.681Z,2.80
2022-10-16T14:15:01.714Z,1.52
2022-10-16T14:17:34.406Z,4.60
2022-10-16T14:20:06.511Z,3.83
2022-10-16T14:22:39.255Z,2.75
2022-10-16T14:25:27.400Z,1.65
2022-10-16T14:28:06.444Z,2.55
2022-10-16T14:30:37.920Z,2.00
2022-10-16T14:33:22.278Z,3.08
2022-10-16T14:36:03.295Z,3.53
2022-10-16T14:38:31.520Z,3.08
2022-10-16T14:41:02.236Z,1.65
2022-10-16T14:43:35.239Z,3.20
2022-10-16T14:46:05.443Z,3.03
2022-10-16T14:48:34.914Z,6.63
2022-10-16T14:51:02.654Z,1.92
2022-10-16T14:53:30.454Z,2.03
2022-10-16T14:56:00.426Z,1.80
2022-10-16T14:58:28.162Z,4.55
2022-10-16T15:00:58.368Z,1.50
2022-10-16T15:03:26.198Z,1.95
2022-10-16T15:05:55.282Z,3.67
2022-10-16T15:08:25.158Z,1.33
2022-10-16T15:10:53.334Z,4.95
2022-10-16T15:13:21.175Z,4.50
2022-10-16T15:15:51.487Z,2.72
2022-10-16T15:18:21.371Z,3.20
2022-10-16T15:20:52.068Z,3.47
2022-10-16T15:25:53.878Z,2.58
2022-10-16T15:28:23.127Z,2.85
2022-10-16T15:30:52.584Z,2.95
2022-10-16T15:33:24.593Z,2.42
2022-10-16T15:35:55.496Z,3.53
2022-10-16T15:38:25.011Z,3.13
2022-10-16T15:40:52.788Z,3.05
2022-10-16T15:43:20.819Z,4.03
2022-10-16T15:46:00.611Z,3.58
2022-10-16T15:48:28.477Z,3.22
2022-10-16T15:50:56.594Z,1.80
2022-10-16T15:53:25.994Z,1.70
2022-10-16T15:55:56.185Z,2.42
2022-10-16T15:58:23.934Z,2.17
2022-10-16T16:00:57.536Z,1.45
2022-10-16T16:03:26.074Z,2.67
2022-10-16T16:05:53.831Z,3.08
2022-10-16T16:08:21.788Z,5.35
2022-10-16T16:11:00.875Z,3.80
2022-10-16T16:13:28.954Z,7.72
2022-10-16T16:15:56.764Z,3.33
2022-10-16T16:18:24.763Z,1.55
2022-10-16T16:20:52.723Z,2.10
2022-10-16T16:23:23.283Z,2.45
2022-10-16T16:26:11.865Z,2.05
2022-10-16T16:28:40.892Z,3.30
2022-10-16T16:31:09.959Z,1.92
2022-10-16T16:33:40.175Z,4.22
2022-10-16T16:36:14.548Z,6.25
2022-10-16T16:38:43.436Z,2.38
2022-10-16T16:41:16.170Z,2.17
2022-10-16T16:43:44.472Z,5.13
2022-10-16T16:46:12.769Z,2.65
2022-10-16T16:48:40.703Z,4.38
2022-10-16T16:51:10.394Z,2.47
2022-10-16T16:53:38.755Z,4.15
2022-10-16T16:56:07.650Z,2.30
2022-10-16T16:58:36.836Z,3.40
2022-10-16T17:01:21.785Z,3.67
2022-10-16T17:03:52.556Z,4.18
2022-10-16T17:06:22.175Z,3.40
2022-10-16T17:08:51.114Z,5.55
2022-10-16T17:11:21.240Z,7.85
2022-10-16T17:13:56.429Z,4.28
2022-10-16T17:16:29.837Z,6.70
2022-10-16T17:18:57.823Z,4.35
2022-10-16T17:21:26.857Z,8.68
2022-10-16T17:23:54.616Z,4.07
2022-10-16T17:26:22.316Z,6.18
2022-10-16T17:28:55.745Z,4.78
2022-10-16T17:31:27.585Z,4.53
2022-10-16T17:33:55.308Z,5.28
2022-10-16T17:36:23.974Z,3.50
2022-10-16T17:38:52.440Z,3.45
2022-10-16T17:41:23.987Z,2.63
2022-10-16T17:43:54.185Z,3.90
2022-10-16T17:46:23.799Z,2.80
2022-10-16T17:48:56.199Z,2.67
2022-10-16T17:51:31.342Z,6.45
2022-10-16T17:54:00.570Z,5.53
2022-10-16T17:56:29.167Z,4.38
2022-10-16T17:59:00.624Z,4.18
2022-10-16T18:01:31.394Z,8.63
2022-10-16T18:04:01.019Z,7.88
2022-10-16T18:06:29.689Z,6.50
2022-10-16T18:08:59.103Z,9.63
2022-10-16T18:11:27.954Z,8.43
2022-10-16T18:13:59.097Z,7.40
2022-10-16T18:16:29.294Z,4.30
2022-10-16T18:18:58.374Z,5.05
2022-10-16T18:21:28.206Z,5.07
2022-10-16T18:23:57.243Z,5.18
2022-10-16T18:26:25.010Z,3.40
2022-10-16T18:28:54.406Z,3.33
2022-10-16T18:31:26.138Z,5.55
2022-10-16T18:33:54.009Z,6.40
2022-10-16T18:36:23.463Z,3.95
2022-10-16T18:38:51.830Z,5.20
2022-10-16T18:41:20.374Z,8.93
2022-10-16T18:43:48.413Z,5.65
2022-10-16T18:46:18.258Z,8.40
2022-10-16T18:48:48.399Z,9.55
2022-10-16T18:51:18.796Z,6.28
2022-10-16T18:53:50.048Z,5.70
2022-10-16T18:56:19.347Z,5.53
2022-10-16T18:58:49.285Z,4.55
2022-10-16T19:01:20.895Z,12.10
2022-10-16T19:03:50.471Z,9.90
2022-10-16T19:06:18.283Z,5.72
2022-10-16T19:08:46.190Z,9.48
2022-10-16T19:11:17.025Z,12.32
2022-10-16T19:13:48.590Z,7.78
2022-10-16T19:16:20.995Z,8.93
2022-10-16T19:18:51.751Z,6.38
2022-10-16T19:21:20.369Z,4.53
2022-10-16T19:23:52.746Z,7.05
2022-10-16T19:26:23.492Z,7.50
2022-10-16T19:28:53.222Z,7.43
2022-10-16T19:31:22.594Z,6.25
2022-10-16T19:33:54.564Z,7.90
2022-10-16T19:36:24.894Z,5.15
2022-10-16T19:38:55.526Z,6.25
2022-10-16T19:41:24.598Z,9.95
2022-10-16T19:43:53.264Z,9.32
2022-10-16T19:46:26.585Z,8.50
2022-10-16T19:49:00.542Z,9.02
2022-10-16T19:51:29.616Z,4.35
2022-10-16T19:53:58.791Z,7.15
2022-10-16T19:56:28.374Z,7.40
2022-10-16T19:58:57.753Z,6.75
2022-10-16T20:01:27.464Z,6.53
2022-10-16T20:03:55.939Z,7.15
2022-10-16T20:06:25.679Z,8.73
2022-10-16T20:08:55.564Z,6.13
2022-10-16T20:11:25.535Z,4.28
2022-10-16T20:13:53.271Z,4.20
2022-10-16T20:16:21.120Z,5.55
2022-10-16T20:18:50.675Z,4.10
2022-10-16T20:21:20.022Z,5.70
2022-10-16T20:23:51.304Z,5.22
2022-10-16T20:26:22.191Z,6.22
2022-10-16T20:28:50.069Z,4.07
2022-10-16T20:31:23.457Z,6.15
2022-10-16T20:33:51.800Z,4.20
2022-10-16T20:36:21.568Z,4.25
2022-10-16T20:38:50.899Z,4.75
2022-10-16T20:41:19.387Z,8.43
2022-10-16T20:43:49.097Z,10.70
2022-10-16T20:46:19.118Z,9.00
2022-10-16T20:48:47.885Z,5.38
2022-10-16T20:51:17.623Z,6.45
2022-10-16T20:53:46.454Z,8.27
2022-10-16T20:56:17.406Z,4.20
2022-10-16T20:58:45.634Z,8.27
2022-10-16T21:01:15.198Z,6.43
2022-10-16T21:03:44.218Z,5.90
2022-10-16T21:06:13.981Z,7.70
2022-10-16T21:08:44.011Z,9.75
2022-10-16T21:11:16.595Z,7.25
2022-10-16T21:13:46.833Z,7.97
2022-10-16T21:16:15.546Z,7.50
2022-10-16T21:18:44.733Z,8.70
2022-10-16T21:21:21.435Z,8.45
2022-10-16T21:23:49.908Z,3.45
2022-10-16T21:26:18.832Z,6.00
2022-10-16T21:28:47.975Z,5.20
2022-10-16T21:31:18.836Z,5.95
2022-10-16T21:33:46.767Z,7.03
2022-10-16T21:36:15.919Z,5.55
2022-10-16T21:38:43.887Z,3.47
2022-10-16T21:41:16.247Z,10.02
2022-10-16T21:43:46.268Z,5.25
2022-10-16T21:46:16.167Z,6.90
2022-10-16T21:48:47.020Z,7.85
2022-10-16T21:51:15.586Z,10.30
2022-10-16T21:53:43.459Z,9.15
2022-10-16T21:56:15.524Z,4.30
2022-10-16T21:58:43.434Z,5.93
2022-10-16T22:01:13.083Z,5.15
2022-10-16T22:03:42.677Z,7.10
2022-10-16T22:06:11.748Z,3.05
2022-10-16T22:08:41.260Z,4.28
2022-10-16T22:11:12.246Z,7.95
2022-10-16T22:13:40.832Z,4.30
2022-10-16T22:16:09.334Z,6.45
2022-10-16T22:18:42.000Z,7.93
2022-10-16T22:21:14.347Z,3.38
2022-10-16T22:23:42.038Z,5.65
2022-10-16T22:26:12.672Z,5.05
2022-10-16T22:28:43.181Z,3.85
2022-10-16T22:31:13.458Z,8.20
2022-10-16T22:33:42.223Z,9.25
2022-10-16T22:36:14.201Z,3.97
2022-10-16T22:38:42.362Z,5.25
2022-10-16T22:41:12.035Z,5.83
2022-10-16T22:43:42.709Z,7.75
2022-10-16T22:46:13.405Z,3.73
2022-10-16T22:48:41.657Z,9.52
2022-10-16T22:51:15.614Z,4.60
2022-10-16T22:53:49.139Z,3.30
2022-10-16T22:56:18.683Z,6.50
2022-10-16T22:58:46.454Z,4.45
2022-10-16T23:01:17.636Z,7.00
2022-10-16T23:03:45.583Z,8.63
2022-10-16T23:06:13.332Z,4.38
2022-10-16T23:08:41.472Z,2.90
2022-10-16T23:11:13.557Z,6.22
2022-10-16T23:13:45.350Z,4.60
2022-10-16T23:16:15.360Z,6.50
2022-10-16T23:18:44.867Z,9.73
2022-10-16T23:21:14.832Z,6.13
2022-10-16T23:23:43.428Z,4.57
2022-10-16T23:26:14.651Z,4.40
2022-10-16T23:28:42.917Z,4.53
2022-10-16T23:31:11.632Z,5.03
2022-10-16T23:33:40.413Z,4.97
2022-10-16T23:36:12.548Z,3.80
2022-10-16T23:38:40.644Z,3.30
2022-10-16T23:41:08.729Z,3.37
2022-10-16T23:43:38.010Z,3.33
2022-10-16T23:46:06.574Z,3.17
2022-10-16T23:48:35.028Z,3.03
2022-10-16T23:51:02.836Z,5.97
2022-10-16T23:53:30.926Z,5.80
2022-10-16T23:55:58.713Z,3.13
2022-10-16T23:58:26.919Z,2.97
